createdAt,value
2019-01-25T00:00:46.294Z,47.53
2019-01-25T00:03:15.481Z,48.87
2019-01-25T00:05:44.622Z,41.70
2019-01-25T00:08:13.752Z,94.83
2019-01-25T00:10:42.925Z,67.17
2019-01-25T00:13:12.159Z,32.63
2019-01-25T00:15:41.321Z,27.90
2019-01-25T00:18:10.482Z,20.60
2019-01-25T00:20:39.608Z,67.37
2019-01-25T00:23:08.945Z,124.53
2019-01-25T00:25:38.127Z,60.30
2019-01-25T00:28:07.327Z,27.20
2019-01-25T00:30:36.551Z,41.43
2019-01-25T00:33:05.726Z,41.07
2019-01-25T00:35:34.916Z,39.30
2019-01-25T00:38:04.144Z,26.23
2019-01-25T00:40:33.308Z,38.37
2019-01-25T00:43:02.475Z,29.47
2019-01-25T00:45:31.655Z,19.80
2019-01-25T00:48:00.826Z,25.50
2019-01-25T00:50:30.004Z,21.13
2019-01-25T00:52:59.530Z,29.07
2019-01-25T00:55:28.730Z,22.07
2019-01-25T00:57:57.900Z,17.17
2019-01-25T01:00:27.287Z,20.83
2019-01-25T01:02:56.688Z,17.90
2019-01-25T01:05:25.894Z,18.20
2019-01-25T01:07:55.021Z,22.03
2019-01-25T01:10:24.207Z,18.50
2019-01-25T01:12:53.383Z,17.67
2019-01-25T01:15:22.552Z,16.97
2019-01-25T01:17:51.756Z,16.80
2019-01-25T01:20:21.355Z,16.97
2019-01-25T01:22:50.579Z,22.43
2019-01-25T01:25:19.796Z,20.60
2019-01-25T01:27:48.975Z,17.83
2019-01-25T01:30:23.407Z,17.10
2019-01-25T01:32:53.373Z,22.17
2019-01-25T01:35:22.546Z,17.87
2019-01-25T01:37:51.800Z,17.77
2019-01-25T01:40:23.106Z,20.37
2019-01-25T01:42:52.596Z,20.37
2019-01-25T01:45:21.837Z,18.80
2019-01-25T01:47:51.028Z,18.87
2019-01-25T01:50:20.262Z,16.33
2019-01-25T01:52:50.532Z,15.73
2019-01-25T01:55:19.953Z,15.90
2019-01-25T01:57:49.132Z,14.60
2019-01-25T02:00:21.105Z,15.43
2019-01-25T02:02:50.193Z,15.60
2019-01-25T02:05:19.371Z,15.30
2019-01-25T02:07:48.474Z,16.30
2019-01-25T02:10:20.582Z,14.93
2019-01-25T02:12:49.734Z,14.67
2019-01-25T02:15:20.354Z,14.60
2019-01-25T02:17:49.529Z,14.10
2019-01-25T02:20:20.943Z,14.13
2019-01-25T02:22:50.117Z,11.87
2019-01-25T02:25:19.330Z,13.63
2019-01-25T02:27:48.527Z,12.00
2019-01-25T02:30:19.559Z,13.23
2019-01-25T02:32:49.091Z,13.47
2019-01-25T02:35:19.245Z,13.70
2019-01-25T02:37:48.456Z,15.17
2019-01-25T02:40:19.640Z,13.43
2019-01-25T02:42:48.796Z,14.27
2019-01-25T02:45:17.953Z,13.83
2019-01-25T02:47:47.098Z,12.67
2019-01-25T02:50:17.463Z,13.83
2019-01-25T02:52:46.633Z,13.67
2019-01-25T02:55:15.864Z,14.20
2019-01-25T02:57:44.967Z,15.30
2019-01-25T03:00:19.564Z,13.80
2019-01-25T03:02:48.735Z,12.47
2019-01-25T03:05:18.824Z,13.00
2019-01-25T03:07:48.025Z,14.17
2019-01-25T03:10:17.216Z,13.20
2019-01-25T03:12:46.377Z,12.50
2019-01-25T03:15:17.719Z,11.30
2019-01-25T03:17:46.900Z,12.47
2019-01-25T03:20:16.089Z,13.57
2019-01-25T03:22:45.271Z,12.57
2019-01-25T03:25:16.796Z,12.37
2019-01-25T03:27:45.930Z,12.07
2019-01-25T03:30:17.214Z,13.00
2019-01-25T03:32:46.377Z,13.63
2019-01-25T03:35:17.271Z,12.37
2019-01-25T03:37:46.435Z,12.33
2019-01-25T03:40:20.960Z,13.67
2019-01-25T03:42:50.177Z,12.77
2019-01-25T03:45:19.791Z,12.27
2019-01-25T03:47:48.949Z,11.80
2019-01-25T03:50:20.618Z,12.97
2019-01-25T03:52:49.796Z,12.03
2019-01-25T03:55:18.963Z,12.97
2019-01-25T03:57:48.147Z,12.40
2019-01-25T04:00:19.227Z,13.17
2019-01-25T04:02:48.322Z,12.53
2019-01-25T04:05:17.831Z,11.97
2019-01-25T04:07:47.290Z,12.23
2019-01-25T04:10:18.097Z,12.40
2019-01-25T04:12:47.225Z,12.60
2019-01-25T04:15:18.896Z,12.43
2019-01-25T04:17:48.055Z,12.40
2019-01-25T04:20:18.399Z,12.60
2019-01-25T04:22:47.570Z,12.73
2019-01-25T04:25:18.440Z,12.07
2019-01-25T04:27:47.567Z,12.07
2019-01-25T04:30:21.842Z,12.97
2019-01-25T04:32:51.101Z,11.10
2019-01-25T04:35:20.263Z,11.57
2019-01-25T04:37:49.459Z,12.17
2019-01-25T04:40:18.674Z,12.53
2019-01-25T04:42:47.835Z,13.30
2019-01-25T04:45:18.333Z,15.47
2019-01-25T04:47:47.436Z,19.83
2019-01-25T04:50:19.370Z,14.00
2019-01-25T04:52:48.832Z,38.43
2019-01-25T04:55:20.146Z,17.93
2019-01-25T04:57:49.369Z,23.27
2019-01-25T05:00:19.065Z,23.17
2019-01-25T05:02:53.666Z,21.83
2019-01-25T05:05:22.767Z,23.27
2019-01-25T05:07:52.800Z,42.07
2019-01-25T05:10:21.971Z,20.20
2019-01-25T05:12:54.515Z,28.93
2019-01-25T05:15:23.701Z,27.90
2019-01-25T05:17:53.843Z,41.10
2019-01-25T05:20:23.219Z,16.13
2019-01-25T05:22:56.946Z,26.00
2019-01-25T05:25:26.972Z,46.67
2019-01-25T05:27:56.175Z,22.00
2019-01-25T05:30:25.988Z,18.47
2019-01-25T05:32:56.605Z,15.83
2019-01-25T05:35:25.807Z,29.00
2019-01-25T05:37:54.971Z,42.93
2019-01-25T05:40:26.315Z,25.27
2019-01-25T05:42:55.540Z,26.20
2019-01-25T05:45:24.706Z,17.67
2019-01-25T05:47:53.783Z,28.93
2019-01-25T05:50:23.007Z,22.23
2019-01-25T05:52:52.082Z,13.57
2019-01-25T05:55:21.824Z,22.27
2019-01-25T05:57:52.577Z,31.50
2019-01-25T06:00:27.313Z,21.20
2019-01-25T06:02:57.594Z,19.83
2019-01-25T06:05:26.770Z,27.83
2019-01-25T06:07:56.899Z,19.80
2019-01-25T06:10:26.052Z,16.40
2019-01-25T06:12:55.205Z,16.83
2019-01-25T06:15:26.641Z,20.13
2019-01-25T06:17:57.383Z,19.90
2019-01-25T06:20:26.994Z,19.00
2019-01-25T06:22:57.283Z,19.87
2019-01-25T06:25:26.432Z,19.67
2019-01-25T06:27:55.656Z,18.37
2019-01-25T06:30:24.850Z,15.93
2019-01-25T06:32:54.029Z,13.17
2019-01-25T06:35:23.237Z,15.60
2019-01-25T06:37:52.410Z,19.27
2019-01-25T06:40:21.581Z,16.97
2019-01-25T06:42:50.765Z,20.57
2019-01-25T06:45:19.936Z,16.40
2019-01-25T06:47:49.105Z,14.43
2019-01-25T06:50:18.188Z,14.97
2019-01-25T06:52:47.365Z,12.33
2019-01-25T06:55:16.567Z,15.27
2019-01-25T06:58:07.965Z,18.13
2019-01-25T07:00:39.293Z,17.90
2019-01-25T07:03:08.443Z,19.23
2019-01-25T07:05:38.105Z,14.97
2019-01-25T07:08:08.859Z,16.77
2019-01-25T07:10:38.031Z,16.53
2019-01-25T07:13:07.242Z,17.40
2019-01-25T07:15:36.432Z,18.90
2019-01-25T07:18:05.626Z,16.77
2019-01-25T07:20:34.811Z,16.10
2019-01-25T07:23:04.017Z,16.43
2019-01-25T07:25:33.191Z,16.53
2019-01-25T07:28:02.363Z,20.07
2019-01-25T07:30:31.565Z,18.87
2019-01-25T07:33:01.467Z,15.70
2019-01-25T07:35:30.652Z,17.67
2019-01-25T07:37:59.853Z,15.17
2019-01-25T07:40:29.221Z,18.83
2019-01-25T07:42:58.383Z,23.00
2019-01-25T07:45:27.588Z,18.60
2019-01-25T07:47:56.777Z,20.43
2019-01-25T07:50:25.993Z,15.70
2019-01-25T07:52:55.155Z,17.47
2019-01-25T07:55:24.373Z,16.47
2019-01-25T07:57:53.934Z,17.60
2019-01-25T08:00:23.175Z,17.70
2019-01-25T08:02:52.434Z,20.53
2019-01-25T08:05:21.627Z,18.70
2019-01-25T08:07:50.767Z,25.27
2019-01-25T08:10:19.969Z,22.43
2019-01-25T08:12:49.206Z,22.43
2019-01-25T08:15:19.348Z,23.30
2019-01-25T08:17:48.725Z,28.40
2019-01-25T08:20:18.173Z,36.87
2019-01-25T08:22:47.804Z,35.10
2019-01-25T08:25:17.309Z,24.00
2019-01-25T08:27:46.490Z,21.73
2019-01-25T08:30:15.991Z,20.97
2019-01-25T08:32:45.186Z,32.33
2019-01-25T08:35:14.343Z,67.50
2019-01-25T08:37:43.563Z,23.87
2019-01-25T08:40:13.073Z,36.77
2019-01-25T08:42:42.229Z,20.20
2019-01-25T08:45:12.218Z,18.33
2019-01-25T08:47:41.409Z,26.27
2019-01-25T08:50:13.778Z,23.57
2019-01-25T08:52:43.040Z,19.20
2019-01-25T08:55:12.196Z,27.70
2019-01-25T08:57:41.758Z,21.43
2019-01-25T09:00:14.196Z,21.77
2019-01-25T09:02:43.410Z,20.10
2019-01-25T09:05:12.707Z,17.50
2019-01-25T09:07:41.849Z,14.67
2019-01-25T09:10:13.862Z,14.03
2019-01-25T09:12:43.031Z,18.40
2019-01-25T09:15:14.775Z,20.87
2019-01-25T09:17:43.975Z,19.27
2019-01-25T09:20:15.970Z,20.47
2019-01-25T09:22:45.483Z,19.47
2019-01-25T09:25:15.356Z,18.70
2019-01-25T09:27:44.595Z,16.20
2019-01-25T09:30:16.094Z,18.27
2019-01-25T09:32:45.287Z,22.53
2019-01-25T09:35:14.822Z,18.40
2019-01-25T09:37:43.991Z,18.13
2019-01-25T09:40:16.052Z,17.03
2019-01-25T09:42:45.234Z,16.37
2019-01-25T09:45:14.461Z,15.70
2019-01-25T09:47:43.656Z,17.20
2019-01-25T09:50:14.987Z,19.30
2019-01-25T09:52:44.167Z,21.53
2019-01-25T09:55:16.047Z,17.63
2019-01-25T09:57:45.256Z,18.83
2019-01-25T10:00:19.027Z,19.97
2019-01-25T10:02:48.183Z,21.87
2019-01-25T10:05:20.861Z,20.10
2019-01-25T10:07:50.072Z,17.80
2019-01-25T10:10:21.406Z,21.40
2019-01-25T10:12:50.606Z,21.93
2019-01-25T10:15:21.907Z,23.47
2019-01-25T10:17:51.097Z,25.00
2019-01-25T10:20:20.262Z,20.53
2019-01-25T10:22:49.459Z,25.00
2019-01-25T10:25:18.577Z,21.13
2019-01-25T10:27:47.794Z,19.93
2019-01-25T10:30:19.589Z,17.33
2019-01-25T10:32:48.824Z,19.33
2019-01-25T10:35:18.008Z,22.73
2019-01-25T10:37:47.193Z,19.77
2019-01-25T10:40:17.619Z,23.90
2019-01-25T10:42:53.045Z,18.00
2019-01-25T10:45:20.345Z,18.70
2019-01-25T10:47:49.523Z,20.80
2019-01-25T10:50:18.698Z,19.67
2019-01-25T10:52:47.935Z,18.20
2019-01-25T10:55:17.153Z,18.80
2019-01-25T10:57:46.373Z,17.40
2019-01-25T11:00:17.038Z,46.13
2019-01-25T11:02:46.229Z,22.57
2019-01-25T11:05:20.526Z,20.90
2019-01-25T11:07:49.735Z,19.93
2019-01-25T11:10:18.897Z,19.50
2019-01-25T11:12:48.090Z,18.90
2019-01-25T11:15:19.367Z,19.07
2019-01-25T11:17:48.635Z,17.93
2019-01-25T11:20:19.562Z,17.97
2019-01-25T11:22:48.807Z,18.67
2019-01-25T11:25:40.850Z,18.50
2019-01-25T11:28:10.067Z,18.20
2019-01-25T11:30:39.294Z,18.00
2019-01-25T11:33:08.527Z,19.93
2019-01-25T11:35:38.426Z,24.60
2019-01-25T11:38:07.636Z,42.27
2019-01-25T11:40:41.963Z,24.80
2019-01-25T11:43:11.152Z,17.80
2019-01-25T11:45:40.444Z,99.23
2019-01-25T11:48:12.407Z,100.30
2019-01-25T11:50:41.634Z,157.90
2019-01-25T11:53:10.818Z,124.03
2019-01-25T11:55:40.055Z,22.20
2019-01-25T11:58:10.080Z,29.60
2019-01-25T12:00:42.804Z,33.57
2019-01-25T12:03:13.658Z,26.73
2019-01-25T12:05:42.926Z,23.17
2019-01-25T12:08:12.142Z,37.80
2019-01-25T12:10:42.638Z,27.50
2019-01-25T12:13:16.074Z,19.03
2019-01-25T12:15:42.829Z,26.13
2019-01-25T12:18:12.103Z,19.80
2019-01-25T12:20:41.463Z,43.63
2019-01-25T12:23:12.006Z,27.73
2019-01-25T12:25:41.461Z,39.83
2019-01-25T12:28:11.051Z,20.53
2019-01-25T12:30:40.645Z,21.30
2019-01-25T12:33:10.428Z,21.20
2019-01-25T12:35:42.327Z,21.07
2019-01-25T12:38:11.590Z,21.50
2019-01-25T12:40:42.387Z,19.83
2019-01-25T12:43:12.119Z,21.17
2019-01-25T12:45:41.395Z,22.30
2019-01-25T12:48:12.519Z,19.20
2019-01-25T12:50:49.144Z,22.87
2019-01-25T12:53:19.883Z,22.77
2019-01-25T12:55:51.950Z,22.77
2019-01-25T12:58:21.221Z,24.30
2019-01-25T13:00:52.357Z,23.50
2019-01-25T13:03:21.658Z,23.90
2019-01-25T13:05:52.064Z,23.97
2019-01-25T13:08:23.677Z,23.63
2019-01-25T13:10:53.352Z,62.03
2019-01-25T13:13:22.591Z,24.40
2019-01-25T13:15:51.856Z,29.93
2019-01-25T13:18:21.191Z,25.27
2019-01-25T13:20:50.448Z,25.67
2019-01-25T13:23:21.828Z,27.53
2019-01-25T13:25:51.125Z,31.50
2019-01-25T13:28:20.322Z,31.27
2019-01-25T13:30:51.022Z,39.53
2019-01-25T13:33:20.599Z,39.37
2019-01-25T13:35:49.919Z,35.83
2019-01-25T13:38:19.100Z,41.00
2019-01-25T13:40:48.334Z,25.57
2019-01-25T13:43:17.584Z,27.07
2019-01-25T13:45:47.736Z,26.60
2019-01-25T13:48:16.956Z,27.10
2019-01-25T13:50:46.204Z,31.23
2019-01-25T13:53:17.478Z,33.47
2019-01-25T13:55:46.718Z,35.13
2019-01-25T13:58:18.402Z,38.23
2019-01-25T14:00:47.681Z,36.30
2019-01-25T14:03:17.214Z,45.80
2019-01-25T14:05:46.401Z,46.57
2019-01-25T14:08:15.640Z,42.33
2019-01-25T14:10:44.908Z,37.47
2019-01-25T14:13:14.786Z,37.17
2019-01-25T14:15:44.595Z,43.07
2019-01-25T14:18:14.138Z,45.23
2019-01-25T14:20:43.372Z,50.37
2019-01-25T14:23:12.554Z,41.50
2019-01-25T14:25:41.803Z,42.93
2019-01-25T14:28:11.282Z,90.90
2019-01-25T14:30:43.819Z,109.03
2019-01-25T14:33:15.325Z,101.70
2019-01-25T14:35:44.498Z,52.03
2019-01-25T14:38:17.580Z,50.03
2019-01-25T14:40:46.844Z,52.93
2019-01-25T14:43:16.077Z,56.33
2019-01-25T14:45:45.287Z,118.83
2019-01-25T14:48:14.492Z,113.27
2019-01-25T14:50:44.372Z,112.13
2019-01-25T14:53:13.587Z,72.73
2019-01-25T14:55:42.868Z,74.77
2019-01-25T14:58:13.678Z,46.47
2019-01-25T15:00:42.928Z,41.80
2019-01-25T15:03:14.256Z,65.67
2019-01-25T15:05:43.514Z,51.30
2019-01-25T15:08:14.004Z,116.40
2019-01-25T15:10:43.285Z,97.63
2019-01-25T15:13:12.894Z,61.87
2019-01-25T15:15:42.100Z,82.77
2019-01-25T15:18:12.074Z,95.93
2019-01-25T15:20:41.676Z,78.07
2019-01-25T15:23:10.966Z,92.50
2019-01-25T15:25:42.814Z,64.93
2019-01-25T15:28:12.056Z,62.60
2019-01-25T15:30:41.282Z,53.80
2019-01-25T15:33:10.489Z,72.20
2019-01-25T15:35:39.699Z,57.13
2019-01-25T15:38:09.203Z,60.63
2019-01-25T15:40:38.434Z,58.23
2019-01-25T15:43:08.230Z,63.77
2019-01-25T15:45:37.448Z,58.20
2019-01-25T15:48:06.729Z,45.90
2019-01-25T15:50:35.966Z,57.03
2019-01-25T15:53:05.235Z,50.83
2019-01-25T15:55:36.626Z,38.70
2019-01-25T15:58:05.943Z,57.50
2019-01-25T16:00:35.198Z,140.20
2019-01-25T16:03:04.394Z,73.83
2019-01-25T16:05:33.686Z,73.73
2019-01-25T16:08:02.886Z,55.57
2019-01-25T16:10:32.181Z,143.43
2019-01-25T16:13:01.415Z,82.63
2019-01-25T16:15:31.895Z,114.17
2019-01-25T16:18:01.453Z,91.67
2019-01-25T16:20:30.687Z,104.63
2019-01-25T16:23:00.964Z,145.60
2019-01-25T16:25:32.280Z,103.43
2019-01-25T16:28:01.561Z,212.03
2019-01-25T16:30:40.499Z,63.23
2019-01-25T16:33:09.717Z,133.07
2019-01-25T16:35:40.210Z,45.87
2019-01-25T16:38:11.198Z,134.50
2019-01-25T16:40:40.648Z,88.07
2019-01-25T16:43:11.606Z,88.83
2019-01-25T16:45:45.041Z,98.87
2019-01-25T16:48:14.822Z,144.23
2019-01-25T16:50:44.616Z,123.20
2019-01-25T16:53:14.629Z,139.17
2019-01-25T16:55:43.892Z,126.40
2019-01-25T16:58:13.162Z,91.80
2019-01-25T17:00:47.294Z,103.93
2019-01-25T17:03:16.829Z,115.50
2019-01-25T17:05:46.079Z,64.67
2019-01-25T17:08:15.322Z,115.80
2019-01-25T17:10:44.610Z,102.70
2019-01-25T17:13:13.841Z,109.50
2019-01-25T17:15:43.707Z,177.67
2019-01-25T17:18:13.340Z,151.93
2019-01-25T17:20:42.615Z,114.97
2019-01-25T17:23:11.880Z,127.23
2019-01-25T17:25:41.194Z,116.37
2019-01-25T17:28:11.436Z,122.57
2019-01-25T17:30:41.056Z,105.57
2019-01-25T17:33:10.805Z,133.33
2019-01-25T17:35:40.086Z,104.90
2019-01-25T17:38:09.812Z,67.67
2019-01-25T17:40:48.422Z,77.10
2019-01-25T17:43:17.685Z,107.03
2019-01-25T17:45:46.965Z,110.03
2019-01-25T17:48:16.208Z,132.83
2019-01-25T17:50:45.558Z,141.10
2019-01-25T17:53:14.706Z,98.73
2019-01-25T17:55:43.977Z,72.60
2019-01-25T17:58:13.174Z,85.47
2019-01-25T18:01:01.409Z,101.40
2019-01-25T18:03:30.670Z,80.03
2019-01-25T18:05:59.866Z,72.50
2019-01-25T18:08:29.901Z,70.07
2019-01-25T18:10:59.280Z,85.70
2019-01-25T18:13:28.717Z,62.27
2019-01-25T18:16:01.142Z,163.63
2019-01-25T18:18:31.892Z,95.90
2019-01-25T18:21:01.176Z,117.73
2019-01-25T18:23:30.634Z,81.47
2019-01-25T18:26:20.709Z,186.90
2019-01-25T18:29:11.944Z,186.63
2019-01-25T18:31:41.229Z,85.70
2019-01-25T18:34:10.606Z,97.13
2019-01-25T18:36:40.259Z,91.90
2019-01-25T18:39:09.984Z,86.80
2019-01-25T18:41:39.304Z,77.53
2019-01-25T18:44:10.112Z,87.20
2019-01-25T18:46:39.676Z,95.83
2019-01-25T18:49:08.963Z,89.77
2019-01-25T18:51:38.515Z,48.67
2019-01-25T18:54:07.988Z,88.60
2019-01-25T18:56:37.504Z,65.97
2019-01-25T18:59:06.752Z,95.40
2019-01-25T19:01:35.998Z,91.27
2019-01-25T19:04:07.525Z,52.90
2019-01-25T19:06:36.798Z,86.00
2019-01-25T19:09:08.459Z,80.57
2019-01-25T19:11:38.549Z,117.43
2019-01-25T19:14:07.929Z,60.30
2019-01-25T19:16:38.953Z,77.90
2019-01-25T19:19:08.277Z,87.43
2019-01-25T19:21:37.528Z,100.83
2019-01-25T19:24:06.793Z,99.13
2019-01-25T19:26:36.003Z,58.90
2019-01-25T19:29:05.578Z,57.17
2019-01-25T19:31:35.263Z,45.37
2019-01-25T19:34:06.060Z,54.23
2019-01-25T19:36:35.368Z,75.10
2019-01-25T19:39:08.576Z,109.73
2019-01-25T19:41:40.790Z,30.90
2019-01-25T19:44:10.385Z,73.97
2019-01-25T19:46:40.590Z,60.00
2019-01-25T19:49:09.821Z,73.00
2019-01-25T19:51:39.065Z,64.60
2019-01-25T19:54:08.349Z,102.47
2019-01-25T19:56:37.613Z,75.07
2019-01-25T19:59:13.399Z,91.63
2019-01-25T20:01:42.724Z,54.47
2019-01-25T20:04:12.357Z,68.97
2019-01-25T20:06:41.742Z,44.70
2019-01-25T20:09:11.240Z,106.20
2019-01-25T20:11:41.718Z,75.27
2019-01-25T20:14:11.106Z,87.00
2019-01-25T20:20:31.824Z,83.97
2019-01-25T20:23:01.049Z,68.73
2019-01-25T20:25:31.546Z,39.00
2019-01-25T20:28:01.037Z,70.43
2019-01-25T20:30:31.294Z,42.67
2019-01-25T20:33:02.165Z,77.97
2019-01-25T20:35:33.677Z,113.67
2019-01-25T20:38:03.233Z,92.37
2019-01-25T20:40:33.233Z,53.73
2019-01-25T20:43:03.324Z,52.97
2019-01-25T20:45:34.413Z,63.20
2019-01-25T20:48:03.834Z,73.20
2019-01-25T20:50:33.979Z,43.37
2019-01-25T20:53:03.367Z,62.63
2019-01-25T20:55:33.150Z,103.23
2019-01-25T20:58:02.435Z,96.30
2019-01-25T21:00:33.676Z,34.00
2019-01-25T21:03:03.314Z,61.70
2019-01-25T21:05:33.263Z,66.53
2019-01-25T21:08:02.618Z,65.87
2019-01-25T21:10:34.196Z,74.27
2019-01-25T21:13:03.424Z,75.73
2019-01-25T21:15:35.373Z,89.63
2019-01-25T21:18:11.092Z,68.53
2019-01-25T21:20:43.344Z,96.73
2019-01-25T21:27:11.554Z,76.60
2019-01-25T21:29:41.044Z,64.57
2019-01-25T21:32:11.581Z,230.87
2019-01-25T21:34:43.031Z,80.83
2019-01-25T21:37:12.441Z,126.20
2019-01-25T21:39:41.899Z,84.97
2019-01-25T21:42:11.277Z,52.10
2019-01-25T21:44:43.344Z,65.27
2019-01-25T21:47:12.865Z,75.90
2019-01-25T21:49:42.240Z,57.87
2019-01-25T21:52:11.548Z,53.10
2019-01-25T21:54:42.252Z,69.47
2019-01-25T21:57:11.419Z,33.30
2019-01-25T21:59:40.745Z,69.57
2019-01-25T22:02:10.008Z,38.00
2019-01-25T22:04:39.315Z,56.33
2019-01-25T22:07:08.538Z,40.40
2019-01-25T22:09:37.794Z,48.77
2019-01-25T22:12:08.525Z,57.43
2019-01-25T22:14:37.865Z,56.40
2019-01-25T22:17:07.099Z,71.63
2019-01-25T22:19:36.469Z,81.10
2019-01-25T22:22:05.663Z,60.90
2019-01-25T22:24:35.097Z,53.17
2019-01-25T22:27:04.375Z,76.07
2019-01-25T22:29:33.693Z,78.50
2019-01-25T22:32:04.011Z,80.57
2019-01-25T22:34:33.253Z,282.70
2019-01-25T22:37:02.464Z,114.93
2019-01-25T22:39:31.684Z,49.80
2019-01-25T22:42:00.952Z,62.20
2019-01-25T22:44:30.836Z,57.07
2019-01-25T22:47:00.076Z,60.93
2019-01-25T22:49:29.279Z,50.57
2019-01-25T22:51:58.521Z,49.90
2019-01-25T22:54:28.264Z,39.43
2019-01-25T22:56:57.467Z,52.73
2019-01-25T22:59:26.743Z,50.33
2019-01-25T23:01:56.201Z,47.63
2019-01-25T23:04:56.158Z,44.27
2019-01-25T23:07:27.627Z,65.80
2019-01-25T23:09:59.174Z,51.93
2019-01-25T23:12:28.479Z,48.47
2019-01-25T23:14:57.641Z,52.37
2019-01-25T23:17:27.001Z,45.20
2019-01-25T23:19:58.503Z,44.27
2019-01-25T23:22:27.707Z,54.20
2019-01-25T23:24:56.848Z,63.33
2019-01-25T23:27:27.014Z,39.07
2019-01-25T23:29:56.518Z,41.73
2019-01-25T23:32:26.033Z,54.83
2019-01-25T23:34:55.211Z,42.10
2019-01-25T23:37:24.848Z,45.23
2019-01-25T23:39:54.070Z,53.03
2019-01-25T23:42:23.233Z,60.83
2019-01-25T23:44:52.600Z,55.93
2019-01-25T23:47:21.797Z,59.07
2019-01-25T23:49:50.988Z,54.37
2019-01-25T23:52:20.152Z,73.00
2019-01-25T23:54:49.848Z,82.00
2019-01-25T23:57:19.148Z,54.33
2019-01-25T23:59:48.354Z,47.87
